createdAt,value
2022-10-28T00:01:26.975Z,18.48
2022-10-28T00:03:58.167Z,18.46
2022-10-28T00:06:30.146Z,18.29
2022-10-28T00:08:59.975Z,18.22
2022-10-28T00:11:30.962Z,18.12
2022-10-28T00:14:02.705Z,18.09
2022-10-28T00:16:33.417Z,18.21
2022-10-28T00:19:02.773Z,18.16
2022-10-28T00:21:36.620Z,18.15
2022-10-28T00:24:07.633Z,17.88
2022-10-28T00:26:37.968Z,18.15
2022-10-28T00:29:09.283Z,18.19
2022-10-28T00:31:38.950Z,18.06
2022-10-28T00:34:12.517Z,17.97
2022-10-28T00:36:43.037Z,17.99
2022-10-28T00:39:15.498Z,17.97
2022-10-28T00:41:46.764Z,17.93
2022-10-28T00:44:53.308Z,17.93
2022-10-28T00:47:37.489Z,17.82
2022-10-28T00:50:33.910Z,17.83
2022-10-28T00:53:07.903Z,17.91
2022-10-28T00:55:38.148Z,17.95
2022-10-28T00:58:09.065Z,17.94
2022-10-28T01:00:37.518Z,18.01
2022-10-28T01:03:05.941Z,17.86
2022-10-28T01:05:38.847Z,17.96
2022-10-28T01:08:07.778Z,17.95
2022-10-28T01:11:17.869Z,17.86
2022-10-28T01:14:13.596Z,17.85
2022-10-28T01:16:54.619Z,17.83
2022-10-28T01:20:00.486Z,17.94
2022-10-28T01:22:35.093Z,17.92
2022-10-28T01:25:54.206Z,17.97
2022-10-28T01:29:10.955Z,18.00
2022-10-28T01:31:45.346Z,17.96
2022-10-28T01:34:24.678Z,17.88
2022-10-28T01:37:00.040Z,17.92
2022-10-28T01:39:37.739Z,17.71
2022-10-28T01:42:16.447Z,17.96
2022-10-28T01:44:54.009Z,17.88
2022-10-28T01:47:27.746Z,17.89
2022-10-28T01:50:00.941Z,17.98
2022-10-28T01:52:32.317Z,17.97
2022-10-28T01:55:07.327Z,18.00
2022-10-28T01:57:39.009Z,17.84
2022-10-28T02:00:09.385Z,17.98
2022-10-28T02:02:42.736Z,17.98
2022-10-28T02:05:38.004Z,18.12
2022-10-28T02:08:22.831Z,18.18
2022-10-28T02:11:06.415Z,18.22
2022-10-28T02:13:53.024Z,18.19
2022-10-28T02:16:31.127Z,18.01
2022-10-28T02:19:10.495Z,18.18
2022-10-28T02:21:48.979Z,18.19
2022-10-28T02:24:23.731Z,18.06
2022-10-28T02:26:58.099Z,18.12
2022-10-28T02:29:34.429Z,18.21
2022-10-28T02:32:08.359Z,18.22
2022-10-28T02:34:43.570Z,18.28
2022-10-28T02:37:18.531Z,18.29
2022-10-28T02:39:53.815Z,18.26
2022-10-28T02:42:26.245Z,18.21
2022-10-28T02:45:00.689Z,18.35
2022-10-28T02:47:33.756Z,18.36
2022-10-28T02:50:09.938Z,18.39
2022-10-28T02:52:38.815Z,18.30
2022-10-28T02:55:08.453Z,18.22
2022-10-28T02:57:41.736Z,18.08
2022-10-28T03:00:15.328Z,18.18
2022-10-28T03:02:43.636Z,17.97
2022-10-28T03:05:14.257Z,18.12
2022-10-28T03:07:42.513Z,18.08
2022-10-28T03:10:11.667Z,18.00
2022-10-28T03:12:40.176Z,18.12
2022-10-28T03:15:09.820Z,18.19
2022-10-28T03:17:38.088Z,18.22
2022-10-28T03:20:07.814Z,18.22
2022-10-28T03:22:37.461Z,18.08
2022-10-28T03:25:06.697Z,18.07
2022-10-28T03:27:34.888Z,18.07
2022-10-28T03:30:03.245Z,18.04
2022-10-28T03:32:31.437Z,17.90
2022-10-28T03:34:59.699Z,18.06
2022-10-28T03:37:28.041Z,17.98
2022-10-28T03:39:57.647Z,18.01
2022-10-28T03:42:25.980Z,17.96
2022-10-28T03:44:54.315Z,17.97
2022-10-28T03:47:22.482Z,17.88
2022-10-28T03:49:50.705Z,18.00
2022-10-28T03:52:18.987Z,17.94
2022-10-28T03:54:47.356Z,18.00
2022-10-28T03:57:16.902Z,17.91
2022-10-28T03:59:45.143Z,17.91
2022-10-28T04:02:15.617Z,17.96
2022-10-28T04:04:43.889Z,17.89
2022-10-28T04:07:13.248Z,18.10
2022-10-28T04:09:42.793Z,18.17
2022-10-28T04:12:12.601Z,18.11
2022-10-28T04:14:42.214Z,18.09
2022-10-28T04:17:10.446Z,17.83
2022-10-28T04:19:38.727Z,18.02
2022-10-28T04:22:07.994Z,18.03
2022-10-28T04:24:36.324Z,18.06
2022-10-28T04:27:04.581Z,17.90
2022-10-28T04:29:34.325Z,17.88
2022-10-28T04:32:04.155Z,17.94
2022-10-28T04:34:32.448Z,17.85
2022-10-28T04:37:00.673Z,17.80
2022-10-28T04:39:28.931Z,17.87
2022-10-28T04:41:57.125Z,17.35
2022-10-28T04:44:25.426Z,17.79
2022-10-28T04:46:53.655Z,17.81
2022-10-28T04:49:23.373Z,17.81
2022-10-28T04:51:51.646Z,17.75
2022-10-28T04:54:19.918Z,17.81
2022-10-28T04:56:48.201Z,17.77
2022-10-28T04:59:17.363Z,17.78
2022-10-28T05:01:45.679Z,17.69
2022-10-28T05:04:14.095Z,17.70
2022-10-28T05:06:43.766Z,17.55
2022-10-28T05:09:12.141Z,17.44
2022-10-28T05:11:40.458Z,17.54
2022-10-28T05:14:08.795Z,17.62
2022-10-28T05:16:37.058Z,17.60
2022-10-28T05:19:05.323Z,17.62
2022-10-28T05:21:33.475Z,17.60
2022-10-28T05:24:03.376Z,17.61
2022-10-28T05:26:31.575Z,17.45
2022-10-28T05:28:59.790Z,17.43
2022-10-28T05:31:27.993Z,17.30
2022-10-28T05:33:56.632Z,17.39
2022-10-28T05:36:24.830Z,17.43
2022-10-28T05:38:53.113Z,17.45
2022-10-28T05:41:23.420Z,17.48
2022-10-28T05:43:52.921Z,17.32
2022-10-28T05:46:22.271Z,17.43
2022-10-28T05:48:50.831Z,17.36
2022-10-28T05:51:19.022Z,17.31
2022-10-28T05:53:47.302Z,17.23
2022-10-28T05:56:15.528Z,17.34
2022-10-28T05:58:45.230Z,17.36
2022-10-28T06:01:13.681Z,17.35
2022-10-28T06:03:41.945Z,17.27
2022-10-28T06:06:10.251Z,17.29
2022-10-28T06:08:38.462Z,17.23
2022-10-28T06:11:05.754Z,17.22
2022-10-28T06:13:34.074Z,17.22
2022-10-28T06:16:04.151Z,17.19
2022-10-28T06:18:32.562Z,17.03
2022-10-28T06:21:00.783Z,16.96
2022-10-28T06:23:29.030Z,16.79
2022-10-28T06:25:58.424Z,16.64
2022-10-28T06:28:27.198Z,16.67
2022-10-28T06:31:02.752Z,16.65
2022-10-28T06:33:31.548Z,16.53
2022-10-28T06:36:00.306Z,16.52
2022-10-28T06:38:29.596Z,16.40
2022-10-28T06:40:58.780Z,16.63
2022-10-28T06:43:27.223Z,16.72
2022-10-28T06:45:56.057Z,16.81
2022-10-28T06:48:27.257Z,16.84
2022-10-28T06:50:57.659Z,16.80
2022-10-28T06:53:26.429Z,16.94
2022-10-28T06:55:55.457Z,16.92
2022-10-28T06:58:24.367Z,16.92
2022-10-28T07:00:53.285Z,16.95
2022-10-28T07:03:21.764Z,17.03
2022-10-28T07:05:51.891Z,17.08
2022-10-28T07:08:20.475Z,17.28
2022-10-28T07:10:56.356Z,17.29
2022-10-28T07:13:24.967Z,17.24
2022-10-28T07:15:54.031Z,17.33
2022-10-28T07:18:23.058Z,17.35
2022-10-28T07:20:52.672Z,17.32
2022-10-28T07:23:21.422Z,17.39
2022-10-28T07:28:28.814Z,17.24
2022-10-28T07:31:01.666Z,17.53
2022-10-28T07:33:30.162Z,17.51
2022-10-28T07:35:59.820Z,17.57
2022-10-28T07:38:28.198Z,17.61
2022-10-28T07:40:56.469Z,17.69
2022-10-28T07:43:24.970Z,17.73
2022-10-28T07:45:57.695Z,17.85
2022-10-28T07:48:26.283Z,17.99
2022-10-28T07:50:54.523Z,18.07
2022-10-28T07:53:27.721Z,18.21
2022-10-28T07:55:58.187Z,18.33
2022-10-28T07:58:26.952Z,18.47
2022-10-28T08:00:55.475Z,18.62
2022-10-28T08:03:31.207Z,18.84
2022-10-28T08:06:10.558Z,18.52
2022-10-28T08:08:41.206Z,19.04
2022-10-28T08:11:13.141Z,19.04
2022-10-28T08:13:41.607Z,19.24
2022-10-28T08:16:10.710Z,19.29
2022-10-28T08:18:40.355Z,19.35
2022-10-28T08:21:11.346Z,19.35
2022-10-28T08:23:41.827Z,19.41
2022-10-28T08:26:10.363Z,19.44
2022-10-28T08:28:38.694Z,19.33
2022-10-28T08:31:10.257Z,19.46
2022-10-28T08:33:40.255Z,19.67
2022-10-28T08:36:11.318Z,19.50
2022-10-28T08:38:45.285Z,19.51
2022-10-28T08:41:29.657Z,19.44
2022-10-28T08:44:35.886Z,19.35
2022-10-28T08:47:18.119Z,19.44
2022-10-28T08:49:51.303Z,19.27
2022-10-28T08:52:29.605Z,19.36
2022-10-28T08:55:04.140Z,19.45
2022-10-28T08:57:45.156Z,19.51
2022-10-28T09:00:23.299Z,19.76
2022-10-28T09:03:13.312Z,19.92
2022-10-28T09:05:44.264Z,20.10
2022-10-28T09:08:24.470Z,20.31
2022-10-28T09:11:17.310Z,20.50
2022-10-28T09:14:09.180Z,20.70
2022-10-28T09:16:47.055Z,20.89
2022-10-28T09:19:39.368Z,21.09
2022-10-28T09:22:25.642Z,21.38
2022-10-28T09:24:57.507Z,21.51
2022-10-28T09:27:59.596Z,21.62
2022-10-28T09:30:45.553Z,21.74
2022-10-28T09:33:35.712Z,21.79
2022-10-28T09:36:06.966Z,21.87
2022-10-28T09:38:38.442Z,21.73
2022-10-28T09:41:15.629Z,21.75
2022-10-28T09:43:51.458Z,21.81
2022-10-28T09:46:20.449Z,21.95
2022-10-28T09:48:51.442Z,21.92
2022-10-28T09:51:32.133Z,22.01
2022-10-28T09:54:01.578Z,22.13
2022-10-28T09:56:31.585Z,22.05
2022-10-28T09:59:03.759Z,22.21
2022-10-28T10:01:35.719Z,22.51
2022-10-28T10:04:16.462Z,22.55
2022-10-28T10:06:46.742Z,22.63
2022-10-28T10:09:21.625Z,22.73
2022-10-28T10:11:51.550Z,22.58
2022-10-28T10:14:27.072Z,22.50
2022-10-28T10:16:58.673Z,22.64
2022-10-28T10:19:27.172Z,22.70
2022-10-28T10:21:56.515Z,22.56
2022-10-28T10:24:30.252Z,22.41
2022-10-28T10:27:01.938Z,21.88
2022-10-28T10:29:32.827Z,22.52
2022-10-28T10:32:19.474Z,22.52
2022-10-28T10:34:58.035Z,22.44
2022-10-28T10:37:26.446Z,22.41
2022-10-28T10:40:22.574Z,22.29
2022-10-28T10:43:13.049Z,22.24
2022-10-28T10:45:41.327Z,22.18
2022-10-28T10:48:15.212Z,22.15
2022-10-28T10:50:45.628Z,22.08
2022-10-28T10:53:27.143Z,21.66
2022-10-28T10:56:00.569Z,21.43
2022-10-28T10:58:33.264Z,21.98
2022-10-28T11:01:07.459Z,22.03
2022-10-28T11:03:39.608Z,22.00
2022-10-28T11:06:22.985Z,22.04
2022-10-28T11:08:58.816Z,22.05
2022-10-28T11:11:35.336Z,21.99
2022-10-28T11:14:08.362Z,21.98
2022-10-28T11:16:49.258Z,21.99
2022-10-28T11:19:25.519Z,22.08
2022-10-28T11:22:14.017Z,22.09
2022-10-28T11:25:24.101Z,22.19
2022-10-28T11:28:09.943Z,22.12
2022-10-28T11:30:54.784Z,22.21
2022-10-28T11:33:34.805Z,22.09
2022-10-28T11:36:19.972Z,22.11
2022-10-28T11:39:14.124Z,22.18
2022-10-28T11:41:58.371Z,22.23
2022-10-28T11:44:42.888Z,22.21
2022-10-28T11:47:31.654Z,22.24
2022-10-28T11:50:36.611Z,22.30
2022-10-28T11:53:54.127Z,22.34
2022-10-28T11:56:35.806Z,22.33
2022-10-28T11:59:31.366Z,22.43
2022-10-28T12:02:14.509Z,22.45
2022-10-28T12:04:59.799Z,22.52
2022-10-28T12:08:12.692Z,22.59
2022-10-28T12:10:55.686Z,22.61
2022-10-28T12:13:34.835Z,22.70
2022-10-28T12:16:13.905Z,22.71
2022-10-28T12:18:52.528Z,22.88
2022-10-28T12:21:29.657Z,22.85
2022-10-28T12:24:00.936Z,22.91
2022-10-28T12:26:39.786Z,22.87
2022-10-28T12:29:17.463Z,22.85
2022-10-28T12:31:50.304Z,22.80
2022-10-28T12:34:27.179Z,23.04
2022-10-28T12:37:01.658Z,23.12
2022-10-28T12:39:36.026Z,23.19
2022-10-28T12:42:12.477Z,23.15
2022-10-28T12:44:41.807Z,23.04
2022-10-28T12:47:21.239Z,23.15
2022-10-28T12:50:01.340Z,23.14
2022-10-28T12:52:41.183Z,23.11
2022-10-28T12:55:25.476Z,23.07
2022-10-28T12:58:02.512Z,23.06
2022-10-28T13:00:36.752Z,23.10
2022-10-28T13:03:08.405Z,23.07
2022-10-28T13:05:43.382Z,23.00
2022-10-28T13:08:42.814Z,23.10
2022-10-28T13:11:56.921Z,23.04
2022-10-28T13:14:47.714Z,23.08
2022-10-28T13:17:28.582Z,23.15
2022-10-28T13:20:04.755Z,23.18
2022-10-28T13:23:05.266Z,23.16
2022-10-28T13:25:58.905Z,23.20
2022-10-28T13:28:34.444Z,22.91
2022-10-28T13:31:06.314Z,22.94
2022-10-28T13:33:38.534Z,23.05
2022-10-28T13:36:17.902Z,23.04
2022-10-28T13:38:54.302Z,23.03
2022-10-28T13:41:42.242Z,23.11
2022-10-28T13:44:29.052Z,23.10
2022-10-28T13:47:27.132Z,22.99
2022-10-28T13:50:35.098Z,22.51
2022-10-28T13:53:53.202Z,22.90
2022-10-28T13:56:47.872Z,22.87
2022-10-28T13:59:31.705Z,22.78
2022-10-28T14:02:35.645Z,22.75
2022-10-28T14:05:08.263Z,22.76
2022-10-28T14:07:38.369Z,22.63
2022-10-28T14:10:24.282Z,22.71
2022-10-28T14:12:56.649Z,22.70
2022-10-28T14:15:30.477Z,22.71
2022-10-28T14:18:22.717Z,22.71
2022-10-28T14:21:01.524Z,22.64
2022-10-28T14:24:08.782Z,22.61
2022-10-28T14:27:32.782Z,22.51
2022-10-28T14:30:22.988Z,22.39
2022-10-28T14:33:21.541Z,22.44
2022-10-28T14:36:00.977Z,22.36
2022-10-28T14:39:13.020Z,22.42
2022-10-28T14:42:01.503Z,22.25
2022-10-28T14:44:51.517Z,22.29
2022-10-28T14:47:41.043Z,22.19
2022-10-28T14:50:20.848Z,22.18
2022-10-28T14:52:51.299Z,22.10
2022-10-28T14:55:26.625Z,22.10
2022-10-28T14:57:55.383Z,21.97
2022-10-28T15:00:28.940Z,21.94
2022-10-28T15:02:57.317Z,21.93
2022-10-28T15:05:32.306Z,21.84
2022-10-28T15:08:04.680Z,21.83
2022-10-28T15:10:35.131Z,21.74
2022-10-28T15:13:04.638Z,21.66
2022-10-28T15:15:35.805Z,21.53
2022-10-28T15:18:22.138Z,21.54
2022-10-28T15:21:08.779Z,21.48
2022-10-28T15:23:37.057Z,21.41
2022-10-28T15:26:09.504Z,21.37
2022-10-28T15:28:38.312Z,21.28
2022-10-28T15:31:07.155Z,21.24
2022-10-28T15:33:40.580Z,21.25
2022-10-28T15:36:18.289Z,21.09
2022-10-28T15:38:47.908Z,20.90
2022-10-28T15:41:49.321Z,20.95
2022-10-28T15:44:35.718Z,20.98
2022-10-28T15:47:21.171Z,20.94
2022-10-28T15:50:05.003Z,20.85
2022-10-28T15:52:41.439Z,20.98
2022-10-28T15:56:02.279Z,20.88
2022-10-28T15:58:37.185Z,20.81
2022-10-28T16:01:11.554Z,20.69
2022-10-28T16:03:46.095Z,20.67
2022-10-28T16:06:25.051Z,20.60
2022-10-28T16:09:07.907Z,20.59
2022-10-28T16:11:39.373Z,20.57
2022-10-28T16:14:32.435Z,20.62
2022-10-28T16:17:13.693Z,20.66
2022-10-28T16:19:47.638Z,20.61
2022-10-28T16:22:18.416Z,20.56
2022-10-28T16:24:48.183Z,20.60
2022-10-28T16:27:22.204Z,20.57
2022-10-28T16:29:51.073Z,20.42
2022-10-28T16:32:29.529Z,20.42
2022-10-28T16:34:59.673Z,20.09
2022-10-28T16:37:30.873Z,20.42
2022-10-28T16:40:00.532Z,20.43
2022-10-28T16:42:29.124Z,20.30
2022-10-28T16:44:57.387Z,20.25
2022-10-28T16:47:26.836Z,20.27
2022-10-28T16:49:57.339Z,20.17
2022-10-28T16:52:29.396Z,20.11
2022-10-28T16:55:00.223Z,20.12
2022-10-28T16:57:28.920Z,20.06
2022-10-28T16:59:57.246Z,20.08
2022-10-28T17:02:29.255Z,20.02
2022-10-28T17:04:58.166Z,20.07
2022-10-28T17:07:27.202Z,20.11
2022-10-28T17:09:57.004Z,20.02
2022-10-28T17:12:28.574Z,20.06
2022-10-28T17:14:56.940Z,20.00
2022-10-28T17:17:25.161Z,20.00
2022-10-28T17:19:53.418Z,19.98
2022-10-28T17:22:21.791Z,19.92
2022-10-28T17:24:50.253Z,19.98
2022-10-28T17:27:19.211Z,19.94
2022-10-28T17:29:49.070Z,19.90
2022-10-28T17:32:17.719Z,19.88
2022-10-28T17:34:46.131Z,19.88
2022-10-28T17:37:14.575Z,19.88
2022-10-28T17:39:43.236Z,19.93
2022-10-28T17:42:11.556Z,19.86
2022-10-28T17:44:39.939Z,19.90
2022-10-28T17:47:09.583Z,19.98
2022-10-28T17:49:37.852Z,19.94
2022-10-28T17:52:06.348Z,19.93
2022-10-28T17:54:34.634Z,19.93
2022-10-28T17:57:02.854Z,19.91
2022-10-28T17:59:31.314Z,19.91
2022-10-28T18:01:59.719Z,19.83
2022-10-28T18:04:30.407Z,19.79
2022-10-28T18:06:59.132Z,19.74
2022-10-28T18:09:31.641Z,19.77
2022-10-28T18:12:01.042Z,19.75
2022-10-28T18:14:29.354Z,19.66
2022-10-28T18:16:58.058Z,19.72
2022-10-28T18:19:26.533Z,19.61
2022-10-28T18:21:56.194Z,19.70
2022-10-28T18:24:26.106Z,19.66
2022-10-28T18:26:57.080Z,19.61
2022-10-28T18:29:25.613Z,19.52
2022-10-28T18:31:53.906Z,19.69
2022-10-28T18:34:23.844Z,19.60
2022-10-28T18:36:52.792Z,19.49
2022-10-28T18:39:22.361Z,19.58
2022-10-28T18:41:51.560Z,19.62
2022-10-28T18:44:24.127Z,19.63
2022-10-28T18:46:52.491Z,19.47
2022-10-28T18:49:20.754Z,19.68
2022-10-28T18:51:49.054Z,19.74
2022-10-28T18:54:17.511Z,19.71
2022-10-28T18:56:48.257Z,19.70
2022-10-28T18:59:17.434Z,19.69
2022-10-28T19:01:47.001Z,19.68
2022-10-28T19:04:15.871Z,19.64
2022-10-28T19:06:44.454Z,19.66
2022-10-28T19:09:12.686Z,19.66
2022-10-28T19:11:40.912Z,19.63
2022-10-28T19:14:11.328Z,19.61
2022-10-28T19:16:39.580Z,19.55
2022-10-28T19:19:08.505Z,19.54
2022-10-28T19:21:36.791Z,19.36
2022-10-28T19:24:05.508Z,19.50
2022-10-28T19:26:34.873Z,19.47
2022-10-28T19:29:05.074Z,19.34
2022-10-28T19:31:38.718Z,19.48
2022-10-28T19:34:07.037Z,19.35
2022-10-28T19:36:35.472Z,19.31
2022-10-28T19:39:04.636Z,19.34
2022-10-28T19:41:32.957Z,19.32
2022-10-28T19:44:02.974Z,19.11
2022-10-28T19:46:35.208Z,19.23
2022-10-28T19:49:06.778Z,19.13
2022-10-28T19:51:37.696Z,19.06
2022-10-28T19:54:10.322Z,19.18
2022-10-28T19:56:40.224Z,19.12
2022-10-28T19:59:08.978Z,19.09
2022-10-28T20:01:40.318Z,19.11
2022-10-28T20:04:10.123Z,19.04
2022-10-28T20:06:40.981Z,18.93
2022-10-28T20:09:09.823Z,18.98
2022-10-28T20:11:39.660Z,18.85
2022-10-28T20:14:11.797Z,18.98
2022-10-28T20:16:43.656Z,18.88
2022-10-28T20:19:12.237Z,18.79
2022-10-28T20:21:40.635Z,18.22
2022-10-28T20:24:09.572Z,18.59
2022-10-28T20:26:39.614Z,18.81
2022-10-28T20:29:09.727Z,18.84
2022-10-28T20:31:38.981Z,18.75
2022-10-28T20:34:09.641Z,18.56
2022-10-28T20:36:39.614Z,18.68
2022-10-28T20:39:10.765Z,18.53
2022-10-28T20:41:40.591Z,18.62
2022-10-28T20:44:09.598Z,18.45
2022-10-28T20:46:37.964Z,18.58
2022-10-28T20:49:14.590Z,18.57
2022-10-28T20:51:43.634Z,18.26
2022-10-28T20:54:11.867Z,18.67
2022-10-28T20:56:42.191Z,18.70
2022-10-28T20:59:10.664Z,18.41
2022-10-28T21:01:41.698Z,18.57
2022-10-28T21:04:13.138Z,18.53
2022-10-28T21:06:41.416Z,18.57
2022-10-28T21:09:11.679Z,18.55
2022-10-28T21:11:40.113Z,18.51
2022-10-28T21:14:08.640Z,18.48
2022-10-28T21:16:37.107Z,18.47
2022-10-28T21:19:05.548Z,18.26
2022-10-28T21:21:35.208Z,18.45
2022-10-28T21:24:03.750Z,18.48
2022-10-28T21:26:32.023Z,18.33
2022-10-28T21:29:00.309Z,18.51
2022-10-28T21:31:28.531Z,18.47
2022-10-28T21:33:56.908Z,18.42
2022-10-28T21:36:25.204Z,18.37
2022-10-28T21:38:57.959Z,18.26
2022-10-28T21:41:26.399Z,18.37
2022-10-28T21:43:55.533Z,18.33
2022-10-28T21:46:25.387Z,18.30
2022-10-28T21:48:54.494Z,18.29
2022-10-28T21:51:22.771Z,18.26
2022-10-28T21:53:50.992Z,18.18
2022-10-28T21:56:22.900Z,18.24
2022-10-28T21:58:52.355Z,18.08
2022-10-28T22:01:23.472Z,18.10
2022-10-28T22:03:52.847Z,17.98
2022-10-28T22:06:21.301Z,18.10
2022-10-28T22:08:49.709Z,18.00
2022-10-28T22:11:21.569Z,17.99
2022-10-28T22:13:57.307Z,18.04
2022-10-28T22:16:26.759Z,17.98
2022-10-28T22:18:55.275Z,18.04
2022-10-28T22:21:25.425Z,18.02
2022-10-28T22:23:54.463Z,18.00
2022-10-28T22:26:26.657Z,18.07
2022-10-28T22:28:55.357Z,18.08
2022-10-28T22:31:26.065Z,18.11
2022-10-28T22:33:54.606Z,18.15
2022-10-28T22:36:24.958Z,18.14
2022-10-28T22:38:53.940Z,18.00
2022-10-28T22:41:25.726Z,18.16
2022-10-28T22:43:55.978Z,18.17
2022-10-28T22:46:27.045Z,18.14
2022-10-28T22:48:56.006Z,17.94
2022-10-28T22:51:24.687Z,17.96
2022-10-28T22:53:53.111Z,17.67
2022-10-28T22:56:25.405Z,17.65
2022-10-28T22:58:56.245Z,17.71
2022-10-28T23:01:26.118Z,17.71
2022-10-28T23:03:55.413Z,17.81
2022-10-28T23:06:26.075Z,17.82
2022-10-28T23:08:54.331Z,17.79
2022-10-28T23:11:24.584Z,17.81
2022-10-28T23:13:54.243Z,17.81
2022-10-28T23:16:24.969Z,17.79
2022-10-28T23:18:53.890Z,17.70
2022-10-28T23:21:24.527Z,17.60
2022-10-28T23:23:56.366Z,17.57
2022-10-28T23:26:26.883Z,17.58
2022-10-28T23:28:57.136Z,16.77
2022-10-28T23:31:25.953Z,17.46
2022-10-28T23:33:55.209Z,17.51
2022-10-28T23:36:24.127Z,17.46
2022-10-28T23:38:53.885Z,17.42
2022-10-28T23:41:22.254Z,17.44
2022-10-28T23:43:51.816Z,17.38
2022-10-28T23:46:21.117Z,17.36
2022-10-28T23:48:49.406Z,17.51
2022-10-28T23:51:19.229Z,17.59
2022-10-28T23:53:47.580Z,17.09
2022-10-28T23:56:15.847Z,17.43
2022-10-28T23:58:44.112Z,17.02
